Time;durP1;ratioP1;P1;durP2;ratioP2;P2;SDS_P1;SDS_P2;PMS_P1;PMS_P2;Temp;Humidity;BMP_temperature;BMP_pressure;BME280_temperature;BME280_humidity;BME280_pressure;Samples;Min_cycle;Max_cycle;Signal;HPM_P1;HPM_P2
2022/05/08 00:00:05;;;;;;;8.00;4.13;;;16.00;86.40;;;;;;5055646;28;20081;-80
2022/05/08 00:02:31;;;;;;;7.47;4.18;;;16.00;86.30;;;;;;5055857;28;20024;-80
2022/05/08 00:04:56;;;;;;;7.90;4.25;;;16.00;86.70;;;;;;5055434;28;20047;-79
2022/05/08 00:07:22;;;;;;;8.00;4.50;;;16.00;86.80;;;;;;5037392;28;20032;-80
2022/05/08 00:09:49;;;;;;;7.25;4.38;;;16.00;86.80;;;;;;5054946;28;20024;-79
2022/05/08 00:12:15;;;;;;;6.88;4.45;;;16.00;86.80;;;;;;5036849;28;20032;-80
2022/05/08 00:14:42;;;;;;;7.10;4.63;;;16.00;86.90;;;;;;5056014;28;20028;-81
2022/05/08 00:17:11;;;;;;;7.35;4.55;;;16.00;86.90;;;;;;5058089;28;20078;-79
2022/05/08 00:19:38;;;;;;;7.03;4.43;;;16.00;86.70;;;;;;5048045;28;20044;-78
2022/05/08 00:22:03;;;;;;;7.40;4.38;;;16.00;86.40;;;;;;5042399;28;20476;-80
2022/05/08 00:24:29;;;;;;;7.95;4.40;;;16.00;86.70;;;;;;5039465;28;20256;-80
2022/05/08 00:26:54;;;;;;;7.65;4.10;;;16.00;86.50;;;;;;5054246;28;20440;-79
2022/05/08 00:29:20;;;;;;;8.43;4.22;;;16.00;86.90;;;;;;5054443;28;20029;-79
2022/05/08 00:31:45;;;;;;;9.00;4.78;;;16.00;86.90;;;;;;5055351;28;20021;-79
2022/05/08 00:34:11;;;;;;;7.10;4.65;;;16.00;86.80;;;;;;5070630;28;20033;-79
2022/05/08 00:36:36;;;;;;;7.22;3.75;;;16.10;86.60;;;;;;5053988;28;20390;-80
2022/05/08 00:39:02;;;;;;;7.20;4.05;;;16.10;86.40;;;;;;5035056;28;20112;-79
2022/05/08 00:41:27;;;;;;;6.40;4.15;;;16.10;86.20;;;;;;5058519;28;20024;-79
2022/05/08 00:43:53;;;;;;;7.40;4.00;;;16.10;86.00;;;;;;5073715;28;20456;-79
2022/05/08 00:46:18;;;;;;;7.15;4.05;;;16.10;85.90;;;;;;5073195;28;20019;-79
2022/05/08 00:48:44;;;;;;;6.45;4.25;;;16.10;85.70;;;;;;5055396;28;20017;-79
2022/05/08 00:51:15;;;;;;;6.68;4.38;;;16.10;85.80;;;;;;5073058;28;20076;-79
2022/05/08 00:53:43;;;;;;;7.38;4.00;;;16.10;86.10;;;;;;5066828;28;20033;-79
2022/05/08 00:56:10;;;;;;;7.10;4.32;;;16.00;86.20;;;;;;5061832;28;20016;-79
2022/05/08 00:58:37;;;;;;;8.55;4.63;;;16.00;86.30;;;;;;5054625;28;20383;-79
2022/05/08 01:01:04;;;;;;;8.43;4.10;;;16.00;86.30;;;;;;5049344;28;20063;-79
2022/05/08 01:03:30;;;;;;;8.68;4.68;;;16.00;86.40;;;;;;5073593;28;20032;-79
2022/05/08 01:05:57;;;;;;;8.65;4.47;;;16.00;86.50;;;;;;5056737;28;20405;-79
2022/05/08 01:08:24;;;;;;;7.68;4.57;;;16.00;86.40;;;;;;5057364;28;20029;-79
2022/05/08 01:10:49;;;;;;;6.93;4.07;;;16.00;86.40;;;;;;5058045;28;20482;-79
2022/05/08 01:13:15;;;;;;;7.65;4.47;;;16.00;86.30;;;;;;5065690;28;20036;-81
2022/05/08 01:15:43;;;;;;;7.80;4.35;;;16.00;86.40;;;;;;5038363;28;20425;-79
2022/05/08 01:18:09;;;;;;;7.53;4.22;;;16.00;86.60;;;;;;5056885;28;20025;-79
2022/05/08 01:20:35;;;;;;;7.50;4.35;;;15.90;86.50;;;;;;5056880;28;20096;-79
2022/05/08 01:23:03;;;;;;;7.20;4.13;;;15.90;86.50;;;;;;5062844;28;20028;-80
2022/05/08 01:25:28;;;;;;;7.75;4.43;;;15.90;86.30;;;;;;5060386;28;20029;-80
2022/05/08 01:27:54;;;;;;;7.82;4.30;;;16.00;86.50;;;;;;5062588;28;20025;-80
2022/05/08 01:30:19;;;;;;;7.13;4.20;;;15.90;86.10;;;;;;5077182;28;20029;-80
2022/05/08 01:32:45;;;;;;;8.45;4.15;;;15.90;86.20;;;;;;5060081;28;20024;-80
2022/05/08 01:35:10;;;;;;;7.97;4.30;;;15.90;86.30;;;;;;5051643;28;20088;-80
2022/05/08 01:37:36;;;;;;;7.13;4.10;;;15.90;86.50;;;;;;5077415;28;20027;-80
2022/05/08 01:40:01;;;;;;;7.20;4.32;;;16.00;86.40;;;;;;5070651;28;20019;-80
2022/05/08 01:42:28;;;;;;;7.72;3.95;;;16.00;86.30;;;;;;5069867;28;20412;-80
2022/05/08 01:44:53;;;;;;;7.35;3.97;;;16.00;86.20;;;;;;5055531;28;20020;-79
2022/05/08 01:50:03;;;;;;;6.40;3.72;;;16.10;85.90;;;;;;5077126;28;20058;-77
2022/05/08 01:52:28;;;;;;;6.88;4.13;;;16.10;85.70;;;;;;5076903;28;20025;-79
2022/05/08 01:54:54;;;;;;;7.40;3.97;;;16.10;85.60;;;;;;5059346;28;20458;-79
2022/05/08 01:57:19;;;;;;;8.02;4.18;;;16.10;85.60;;;;;;5041140;28;20033;-79
2022/05/08 01:59:45;;;;;;;7.18;4.00;;;16.10;85.50;;;;;;5039076;28;20021;-79
2022/05/08 02:02:10;;;;;;;7.85;4.25;;;16.00;85.70;;;;;;5056709;28;20494;-79
2022/05/08 02:04:37;;;;;;;7.10;3.70;;;16.00;85.90;;;;;;5056642;28;20099;-79
2022/05/08 02:07:03;;;;;;;8.18;4.65;;;16.00;85.90;;;;;;5038036;28;20032;-79
2022/05/08 02:09:28;;;;;;;7.20;4.10;;;16.00;86.10;;;;;;5056666;28;20025;-79
2022/05/08 02:11:54;;;;;;;6.85;3.88;;;16.00;86.10;;;;;;5038420;28;20029;-80
2022/05/08 02:14:19;;;;;;;8.23;3.97;;;16.00;86.20;;;;;;5052465;28;20033;-80
2022/05/08 02:16:45;;;;;;;6.15;3.83;;;16.00;86.10;;;;;;5074808;28;20021;-79
2022/05/08 02:19:11;;;;;;;6.57;3.83;;;15.90;86.00;;;;;;5057962;28;20032;-79
2022/05/08 02:21:36;;;;;;;8.32;4.07;;;16.00;86.10;;;;;;5076139;28;20029;-79
2022/05/08 02:24:02;;;;;;;7.47;3.83;;;15.90;86.20;;;;;;5075802;28;20021;-79
2022/05/08 02:26:27;;;;;;;6.65;3.63;;;15.90;86.00;;;;;;5057506;28;20047;-79
2022/05/08 02:28:53;;;;;;;6.93;3.80;;;15.90;86.20;;;;;;5064991;28;20120;-79
2022/05/08 02:31:18;;;;;;;7.10;4.00;;;15.90;86.60;;;;;;5037480;28;20475;-79
2022/05/08 02:33:44;;;;;;;7.32;3.95;;;15.90;86.10;;;;;;5037715;28;20024;-80
2022/05/08 02:36:09;;;;;;;6.93;3.97;;;15.90;86.20;;;;;;5043319;28;20515;-79
2022/05/08 02:38:37;;;;;;;7.30;3.67;;;15.90;86.30;;;;;;5057740;28;20062;-79
2022/05/08 02:41:02;;;;;;;9.65;4.13;;;15.90;85.60;;;;;;5075577;28;20082;-79
2022/05/08 02:43:28;;;;;;;6.45;3.90;;;15.90;85.90;;;;;;5060894;28;20483;-79
2022/05/08 02:45:59;;;;;;;7.72;3.80;;;15.90;86.30;;;;;;5055045;28;20032;-79
2022/05/08 02:48:39;;;;;;;6.88;3.80;;;15.90;86.20;;;;;;5070608;28;20116;-79
2022/05/08 02:51:05;;;;;;;6.53;3.63;;;15.90;86.10;;;;;;5064783;28;20103;-79
2022/05/08 02:53:31;;;;;;;6.32;3.53;;;15.90;85.90;;;;;;5095310;28;20393;-79
2022/05/08 02:58:41;;;;;;;6.50;3.75;;;16.00;85.60;;;;;;5095565;28;20031;-79
2022/05/08 03:01:07;;;;;;;7.15;3.72;;;16.00;85.40;;;;;;5073215;28;20433;-79
2022/05/08 03:03:32;;;;;;;6.97;3.90;;;16.00;85.30;;;;;;5056981;28;20505;-80
2022/05/08 03:05:58;;;;;;;7.18;3.88;;;16.00;85.00;;;;;;5073227;28;20027;-79
2022/05/08 03:08:24;;;;;;;8.05;3.70;;;16.00;85.10;;;;;;5057057;28;20496;-79
2022/05/08 03:13:38;;;;;;;7.40;4.05;;;16.00;85.50;;;;;;5062858;28;20096;-80
2022/05/08 03:16:05;;;;;;;7.43;3.72;;;15.90;85.70;;;;;;5074592;28;20017;-79
2022/05/08 03:18:31;;;;;;;6.90;3.88;;;15.90;85.80;;;;;;5074485;28;20038;-79
2022/05/08 03:20:56;;;;;;;6.78;3.75;;;15.90;85.90;;;;;;5050051;28;20084;-79
2022/05/08 03:23:22;;;;;;;7.57;4.18;;;15.90;85.90;;;;;;5045496;28;20025;-79
2022/05/08 03:25:48;;;;;;;7.97;4.10;;;15.90;85.90;;;;;;5054668;28;20028;-80
2022/05/08 03:28:15;;;;;;;7.18;4.55;;;15.90;85.90;;;;;;5060427;28;20399;-80
2022/05/08 03:30:41;;;;;;;7.70;3.88;;;15.90;86.00;;;;;;5057518;28;20036;-80
2022/05/08 03:33:08;;;;;;;6.85;3.60;;;15.90;86.00;;;;;;5066661;28;20028;-80
2022/05/08 03:35:34;;;;;;;7.50;3.50;;;15.90;86.00;;;;;;5057376;28;20028;-81
2022/05/08 03:38:00;;;;;;;9.43;4.13;;;15.80;85.90;;;;;;5055062;28;20025;-80
2022/05/08 03:40:26;;;;;;;6.55;3.72;;;15.90;86.00;;;;;;5062298;28;20096;-80
2022/05/08 03:42:52;;;;;;;7.95;3.63;;;15.80;85.90;;;;;;5076023;28;20397;-81
2022/05/08 03:45:18;;;;;;;6.35;3.25;;;15.80;85.80;;;;;;5053441;28;20024;-78
2022/05/08 03:47:44;;;;;;;7.75;3.90;;;15.90;86.00;;;;;;5076355;28;20064;-80
2022/05/08 03:50:09;;;;;;;5.90;3.40;;;15.80;85.50;;;;;;5066280;28;20055;-80
2022/05/08 03:52:35;;;;;;;8.02;4.28;;;15.80;85.60;;;;;;5048992;28;20032;-79
2022/05/08 03:55:02;;;;;;;7.45;3.83;;;15.80;85.80;;;;;;5074803;28;20046;-78
2022/05/08 03:57:27;;;;;;;7.53;3.67;;;15.80;85.90;;;;;;5055417;28;20056;-80
2022/05/08 03:59:53;;;;;;;6.40;3.47;;;15.90;85.90;;;;;;5054889;28;20031;-79
2022/05/08 04:02:18;;;;;;;7.05;3.20;;;15.90;85.70;;;;;;5044216;28;20553;-79
2022/05/08 04:04:44;;;;;;;7.28;3.65;;;15.90;85.60;;;;;;5074417;28;20021;-80
2022/05/08 04:07:09;;;;;;;6.95;3.45;;;16.00;85.50;;;;;;5074368;28;20032;-80
2022/05/08 04:09:35;;;;;;;8.88;3.90;;;16.00;85.30;;;;;;5074089;28;20024;-79
2022/05/08 04:12:00;;;;;;;6.68;3.47;;;16.00;85.10;;;;;;5056430;28;20111;-80
2022/05/08 04:14:26;;;;;;;8.32;3.67;;;16.00;85.10;;;;;;5074392;28;20020;-79
2022/05/08 04:16:51;;;;;;;6.35;3.30;;;16.00;85.10;;;;;;5074001;28;20446;-79
2022/05/08 04:19:17;;;;;;;6.72;3.33;;;16.00;85.10;;;;;;5073993;28;20036;-79
2022/05/08 04:21:42;;;;;;;7.32;3.60;;;15.90;85.10;;;;;;5055780;28;20115;-80
2022/05/08 04:24:17;;;;;;;8.93;3.83;;;15.90;85.30;;;;;;5065541;28;20050;-79
2022/05/08 04:26:43;;;;;;;7.18;3.67;;;15.90;85.40;;;;;;5053519;28;20474;-80
2022/05/08 04:29:08;;;;;;;6.95;3.60;;;15.90;85.60;;;;;;5053300;28;20024;-79
2022/05/08 04:31:34;;;;;;;7.28;3.67;;;15.90;85.50;;;;;;5053832;28;20553;-81
2022/05/08 04:34:00;;;;;;;7.97;3.88;;;15.80;85.60;;;;;;5035905;28;20025;-79
2022/05/08 04:36:26;;;;;;;7.25;3.30;;;15.80;85.50;;;;;;5071901;28;20496;-80
2022/05/08 04:38:52;;;;;;;6.97;3.25;;;15.80;85.60;;;;;;5056040;28;20046;-79
2022/05/08 04:41:18;;;;;;;7.63;3.45;;;15.80;85.50;;;;;;5077851;28;20028;-80
2022/05/08 04:43:43;;;;;;;8.23;3.65;;;15.80;85.70;;;;;;5059831;28;20031;-81
2022/05/08 04:46:12;;;;;;;7.70;3.60;;;15.80;85.60;;;;;;5051744;28;20028;-78
2022/05/08 04:48:38;;;;;;;6.97;3.53;;;15.80;85.70;;;;;;5050105;28;20036;-79
2022/05/08 04:51:04;;;;;;;7.97;3.50;;;15.80;85.70;;;;;;5059802;28;20025;-79
2022/05/08 04:53:33;;;;;;;6.93;3.67;;;15.80;85.70;;;;;;5060324;28;20091;-81
2022/05/08 04:55:59;;;;;;;7.15;3.50;;;15.80;85.60;;;;;;5057196;28;20016;-80
2022/05/08 04:58:29;;;;;;;7.18;3.50;;;15.80;85.70;;;;;;5065345;28;20116;-80
2022/05/08 05:01:00;;;;;;;8.05;3.65;;;15.80;85.70;;;;;;5082321;28;20047;-80
2022/05/08 05:03:26;;;;;;;;;;;15.80;85.60;;;;;;5099237;28;20031;-80
2022/05/08 05:05:52;;;;;;;7.18;3.70;;;15.80;85.70;;;;;;5098676;28;19904;-80
2022/05/08 05:08:18;;;;;;;7.25;3.72;;;15.80;85.70;;;;;;5080407;28;20028;-80
2022/05/08 05:10:44;;;;;;;7.00;3.40;;;15.80;85.50;;;;;;5098655;28;20025;-80
2022/05/08 05:13:09;;;;;;;7.22;3.20;;;15.90;85.40;;;;;;5080083;28;20023;-80
2022/05/08 05:15:35;;;;;;;6.50;3.42;;;15.90;85.30;;;;;;5088443;28;20039;-79
2022/05/08 05:18:01;;;;;;;7.28;3.28;;;15.90;85.10;;;;;;5065609;28;20060;-80
2022/05/08 05:20:28;;;;;;;6.65;3.45;;;16.00;85.00;;;;;;5057873;28;20025;-79
2022/05/08 05:22:54;;;;;;;6.88;3.28;;;16.00;84.90;;;;;;5058404;28;20399;-79
2022/05/08 05:25:19;;;;;;;8.10;4.00;;;16.00;84.90;;;;;;5040843;28;20025;-80
2022/05/08 05:27:45;;;;;;;7.80;3.15;;;16.00;84.90;;;;;;5059834;28;20029;-80
2022/05/08 05:30:11;;;;;;;7.20;3.38;;;16.00;85.00;;;;;;5058191;28;20029;-80
2022/05/08 05:32:38;;;;;;;6.82;3.35;;;15.90;84.90;;;;;;5069330;28;20025;-79
2022/05/08 05:35:04;;;;;;;7.53;3.20;;;15.90;85.00;;;;;;5072601;28;20450;-80
2022/05/08 05:37:29;;;;;;;6.80;3.60;;;15.90;85.10;;;;;;5045266;28;20025;-80
2022/05/08 05:39:55;;;;;;;7.38;3.97;;;15.90;85.20;;;;;;5045253;28;20389;-79
2022/05/08 05:42:20;;;;;;;8.73;3.70;;;15.90;85.20;;;;;;5063461;28;20029;-79
2022/05/08 05:44:46;;;;;;;7.65;3.70;;;15.90;85.20;;;;;;5041634;28;20033;-79
2022/05/08 05:50:12;;;;;;;6.60;3.42;;;15.80;85.10;;;;;;5034161;28;20029;-80
2022/05/08 05:52:38;;;;;;;8.13;3.42;;;15.80;85.10;;;;;;5044742;28;20486;-77
2022/05/08 05:55:06;;;;;;;7.03;3.38;;;15.80;85.10;;;;;;5067103;28;20036;-80
2022/05/08 05:57:35;;;;;;;6.45;3.33;;;15.80;85.00;;;;;;5048584;28;20028;-79
2022/05/08 06:00:00;;;;;;;7.05;3.25;;;15.80;85.10;;;;;;5060047;28;20028;-79
2022/05/08 06:02:26;;;;;;;5.60;3.10;;;15.80;85.00;;;;;;5056930;28;20624;-80
2022/05/08 06:04:51;;;;;;;6.55;3.60;;;15.90;85.00;;;;;;5041232;28;20024;-78
2022/05/08 06:07:17;;;;;;;8.32;3.78;;;15.80;84.90;;;;;;5059796;28;20110;-80
2022/05/08 06:09:42;;;;;;;6.63;3.20;;;15.80;85.00;;;;;;5075355;28;20031;-79
2022/05/08 06:12:08;;;;;;;6.47;3.35;;;15.80;84.90;;;;;;5040596;28;20510;-80
2022/05/08 06:14:34;;;;;;;6.13;3.10;;;15.80;84.90;;;;;;5069868;28;20054;-79
2022/05/08 06:16:59;;;;;;;7.45;3.30;;;15.80;84.80;;;;;;5057630;28;20032;-78
2022/05/08 06:19:25;;;;;;;6.60;3.05;;;15.90;84.80;;;;;;5071813;28;20024;-79
2022/05/08 06:21:52;;;;;;;7.30;3.78;;;15.90;84.80;;;;;;5053011;28;20067;-79
2022/05/08 06:24:17;;;;;;;6.78;3.13;;;15.90;84.70;;;;;;5075201;28;20020;-80
2022/05/08 06:26:43;;;;;;;5.93;3.20;;;15.90;84.50;;;;;;5049324;28;20023;-80
2022/05/08 06:29:08;;;;;;;6.93;3.15;;;16.00;84.50;;;;;;5042465;28;20013;-81
2022/05/08 06:31:34;;;;;;;5.38;3.00;;;16.00;84.40;;;;;;5042680;28;20025;-80
2022/05/08 06:33:59;;;;;;;7.15;3.30;;;16.00;84.30;;;;;;5062804;28;20060;-79
2022/05/08 06:36:28;;;;;;;6.53;3.30;;;16.00;84.40;;;;;;5048161;28;20059;-80
2022/05/08 06:38:54;;;;;;;6.60;3.10;;;16.00;84.50;;;;;;5043533;28;20025;-79
2022/05/08 06:41:20;;;;;;;6.18;3.22;;;16.00;85.10;;;;;;5053133;28;20028;-80
2022/05/08 06:43:47;;;;;;;7.40;3.25;;;15.90;84.60;;;;;;5043410;28;20033;-79
2022/05/08 06:46:13;;;;;;;7.15;3.30;;;15.90;84.60;;;;;;5051638;28;20115;-78
2022/05/08 06:48:39;;;;;;;6.50;3.53;;;15.90;84.60;;;;;;5062769;28;20035;-78
2022/05/08 06:51:05;;;;;;;5.38;3.25;;;15.90;84.60;;;;;;5068425;28;20028;-80
2022/05/08 06:53:31;;;;;;;7.60;3.35;;;15.90;84.60;;;;;;5064917;28;20032;-80
2022/05/08 06:55:57;;;;;;;5.90;3.30;;;15.90;84.60;;;;;;5061893;28;20092;-79
2022/05/08 06:58:26;;;;;;;6.60;3.10;;;15.90;84.60;;;;;;5053337;28;20059;-78
2022/05/08 07:03:37;;;;;;;6.13;3.10;;;15.90;84.60;;;;;;5081708;28;20047;-79
2022/05/08 07:06:03;;;;;;;6.22;3.05;;;15.90;84.50;;;;;;5062985;28;20025;-79
2022/05/08 07:08:29;;;;;;;9.05;3.55;;;15.90;84.20;;;;;;5061941;28;20036;-80
2022/05/08 07:10:55;;;;;;;5.85;3.20;;;15.90;84.30;;;;;;5081063;28;20024;-79
2022/05/08 07:13:25;;;;;;;6.68;3.67;;;15.90;84.40;;;;;;5047426;28;20037;-81
2022/05/08 07:15:54;;;;;;;5.78;3.05;;;15.90;84.40;;;;;;5048840;28;20092;-80
2022/05/08 07:18:21;;;;;;;5.90;3.28;;;15.90;84.40;;;;;;5053840;28;20029;-80
2022/05/08 07:20:47;;;;;;;7.63;3.45;;;15.90;84.30;;;;;;5050341;28;20029;-79
2022/05/08 07:23:13;;;;;;;6.72;3.08;;;15.90;84.30;;;;;;5057042;28;20124;-82
2022/05/08 07:25:39;;;;;;;7.45;3.22;;;15.90;84.20;;;;;;5063031;28;20044;-79
2022/05/08 07:28:05;;;;;;;6.40;3.33;;;16.00;84.20;;;;;;5066744;28;20025;-81
2022/05/08 07:30:30;;;;;;;6.20;3.13;;;16.00;84.10;;;;;;5069382;28;20044;-80
2022/05/08 07:33:00;;;;;;;6.90;3.17;;;16.00;83.90;;;;;;5047339;28;20025;-80
2022/05/08 07:38:10;;;;;;;6.30;2.80;;;16.10;83.70;;;;;;5066951;28;20157;-78
2022/05/08 07:40:35;;;;;;;6.93;3.20;;;16.10;83.50;;;;;;5050275;28;20520;-79
2022/05/08 07:43:01;;;;;;;5.70;3.00;;;16.10;83.40;;;;;;5066285;28;20036;-81
2022/05/08 07:45:28;;;;;;;6.80;3.05;;;16.10;83.40;;;;;;5046308;28;20138;-81
2022/05/08 07:47:54;;;;;;;5.90;2.90;;;16.10;83.30;;;;;;5050889;28;20379;-80
2022/05/08 07:50:20;;;;;;;6.13;3.22;;;16.10;83.00;;;;;;5067504;28;20596;-80
2022/05/08 07:52:45;;;;;;;6.25;2.97;;;16.20;82.90;;;;;;5048702;28;20053;-79
2022/05/08 07:55:11;;;;;;;7.03;3.00;;;16.20;83.00;;;;;;5041637;28;20032;-80
2022/05/08 07:57:36;;;;;;;6.22;2.78;;;16.20;82.70;;;;;;5047871;28;20600;-81
2022/05/08 08:00:03;;;;;;;6.30;2.80;;;16.20;82.80;;;;;;5063625;28;20037;-80
2022/05/08 08:02:28;;;;;;;6.80;3.20;;;16.20;82.70;;;;;;5059908;28;20088;-81
2022/05/08 08:04:54;;;;;;;5.75;2.83;;;16.20;82.70;;;;;;5074883;28;20028;-80
2022/05/08 08:07:19;;;;;;;6.10;2.92;;;16.20;82.50;;;;;;5084497;28;20593;-81
2022/05/08 08:09:45;;;;;;;6.72;3.00;;;16.20;82.80;;;;;;5065179;28;20036;-80
2022/05/08 08:12:11;;;;;;;6.22;2.83;;;16.20;82.70;;;;;;5064758;28;20059;-81
2022/05/08 08:14:36;;;;;;;7.78;3.10;;;16.20;82.70;;;;;;5063826;28;20045;-79
2022/05/08 08:17:02;;;;;;;6.68;2.90;;;16.20;82.80;;;;;;5071805;28;20116;-81
2022/05/08 08:19:27;;;;;;;8.30;3.45;;;16.20;82.70;;;;;;5043408;28;20393;-80
2022/05/08 08:21:53;;;;;;;5.35;2.80;;;16.30;82.70;;;;;;5066729;28;20024;-80
2022/05/08 08:24:18;;;;;;;6.57;3.05;;;16.30;82.60;;;;;;5080434;28;20039;-79
2022/05/08 08:26:44;;;;;;;5.80;3.00;;;16.30;82.40;;;;;;5066094;28;20062;-81
2022/05/08 08:29:09;;;;;;;6.90;3.17;;;16.30;82.30;;;;;;5062203;28;20029;-82
2022/05/08 08:31:35;;;;;;;6.07;3.00;;;16.40;82.20;;;;;;5061471;28;20017;-82
2022/05/08 08:34:00;;;;;;;5.82;2.80;;;16.40;82.20;;;;;;5061324;28;20120;-81
2022/05/08 08:36:26;;;;;;;5.68;3.05;;;16.40;82.00;;;;;;5060379;28;20486;-80
2022/05/08 08:38:51;;;;;;;5.68;3.03;;;16.50;81.90;;;;;;5070629;28;20489;-81
2022/05/08 08:41:25;;;;;;;6.38;3.03;;;16.50;81.60;;;;;;5055353;28;20021;-81
2022/05/08 08:49:24;;;;;;;5.97;2.83;;;16.70;81.00;;;;;;5059734;28;20060;-82
2022/05/08 08:51:51;;;;;;;5.63;2.70;;;16.70;80.90;;;;;;5073875;28;20028;-80
2022/05/08 08:54:21;;;;;;;5.82;2.83;;;16.70;81.00;;;;;;5077424;28;20021;-80
2022/05/08 08:56:50;;;;;;;5.75;2.80;;;16.70;80.80;;;;;;5047393;28;20025;-80
2022/05/08 08:59:16;;;;;;;6.43;2.75;;;16.60;80.70;;;;;;5039404;28;20060;-79
2022/05/08 09:01:43;;;;;;;6.15;2.80;;;16.60;80.90;;;;;;5051197;28;20098;-76
2022/05/08 09:04:09;;;;;;;5.45;2.65;;;16.60;81.20;;;;;;5053512;28;20548;-81
2022/05/08 09:06:43;;;;;;;5.70;2.50;;;16.60;81.20;;;;;;5065074;28;20046;-80
2022/05/08 09:09:24;;;;;;;5.10;2.75;;;16.60;81.20;;;;;;5043390;28;20028;-79
2022/05/08 09:11:53;;;;;;;6.07;2.97;;;16.60;81.20;;;;;;5041373;28;20406;-79
2022/05/08 09:14:35;;;;;;;5.47;2.65;;;16.70;81.20;;;;;;5073481;28;20029;-82
2022/05/08 09:17:05;;;;;;;6.28;2.60;;;16.70;81.00;;;;;;5060290;28;20025;-80
2022/05/08 09:19:36;;;;;;;5.60;2.75;;;16.70;80.90;;;;;;5075552;28;20036;-79
2022/05/08 09:22:03;;;;;;;5.33;2.43;;;16.70;80.90;;;;;;5073844;28;20061;-80
2022/05/08 09:24:30;;;;;;;6.07;2.92;;;16.80;80.90;;;;;;5059556;28;20405;-79
2022/05/08 09:27:16;;;;;;;5.63;2.83;;;16.80;80.90;;;;;;5079371;28;20021;-80
2022/05/08 09:29:42;;;;;;;5.93;2.75;;;16.80;80.70;;;;;;5073313;28;20048;-80
2022/05/08 09:32:09;;;;;;;6.22;3.00;;;16.80;80.60;;;;;;5050827;28;20024;-79
2022/05/08 09:34:53;;;;;;;5.07;2.50;;;16.80;80.60;;;;;;5065291;28;20028;-80
2022/05/08 09:37:19;;;;;;;5.82;3.00;;;16.80;80.60;;;;;;5051438;28;20035;-79
2022/05/08 09:39:44;;;;;;;4.50;2.70;;;16.80;80.70;;;;;;5069842;28;20029;-79
2022/05/08 09:42:38;;;;;;;5.40;2.67;;;16.80;80.60;;;;;;5082427;28;20028;-78
2022/05/08 09:45:09;;;;;;;6.10;2.80;;;16.90;80.60;;;;;;5054540;28;20559;-79
2022/05/08 09:47:45;;;;;;;6.10;2.80;;;16.90;80.50;;;;;;5047364;28;20074;-80
2022/05/08 09:50:11;;;;;;;5.55;2.58;;;16.90;80.20;;;;;;5043979;28;20063;-79
2022/05/08 09:52:41;;;;;;;8.05;3.00;;;16.90;80.10;;;;;;5053473;28;20060;-79
2022/05/08 09:55:16;;;;;;;8.60;3.00;;;17.00;80.10;;;;;;5037970;28;20464;-80
2022/05/08 09:57:41;;;;;;;13.25;2.90;;;17.00;79.70;;;;;;5056364;28;20377;-80
2022/05/08 10:00:08;;;;;;;9.55;3.05;;;17.00;79.50;;;;;;5038149;28;20032;-77
2022/05/08 10:02:35;;;;;;;15.60;2.90;;;17.00;79.40;;;;;;5039674;28;20130;-82
2022/05/08 10:05:02;;;;;;;9.35;3.03;;;16.90;79.40;;;;;;5045543;28;20045;-80
2022/05/08 10:07:28;;;;;;;19.05;3.38;;;17.00;79.40;;;;;;5059470;28;20036;-78
2022/05/08 10:15:48;;;;;;;20.90;3.72;;;17.00;79.50;;;;;;5067430;28;20110;-79
2022/05/08 10:18:27;;;;;;;22.10;3.83;;;17.00;79.50;;;;;;5066807;28;20387;-80
2022/05/08 10:21:12;;;;;;;17.90;3.50;;;16.90;79.60;;;;;;5049136;28;20040;-79
2022/05/08 10:23:39;;;;;;;13.50;3.33;;;16.90;79.60;;;;;;5056462;28;20025;-80
2022/05/08 10:26:16;;;;;;;16.33;3.33;;;17.00;79.60;;;;;;5052533;28;20017;-80
2022/05/08 10:29:03;;;;;;;22.83;3.70;;;16.90;79.40;;;;;;5065954;28;20032;-81
2022/05/08 10:31:42;;;;;;;24.00;4.57;;;16.90;78.10;;;;;;5071130;28;20491;-79
2022/05/08 10:34:10;;;;;;;30.70;5.03;;;16.90;77.40;;;;;;5077687;28;20415;-80
2022/05/08 10:36:36;;;;;;;23.38;4.15;;;16.90;77.00;;;;;;5053993;28;20025;-79
2022/05/08 10:39:42;;;;;;;31.65;5.00;;;16.90;76.90;;;;;;5056070;28;20056;-79
2022/05/08 10:42:29;;;;;;;26.80;5.20;;;17.00;77.00;;;;;;5059368;28;20029;-79
2022/05/08 10:45:01;;;;;;;34.22;5.35;;;17.00;77.10;;;;;;5060494;28;20040;-79
2022/05/08 10:47:33;;;;;;;29.02;4.30;;;17.00;77.20;;;;;;5045248;28;20029;-80
2022/05/08 10:50:06;;;;;;;28.05;4.97;;;17.00;77.80;;;;;;5055756;28;20035;-80
2022/05/08 10:52:33;;;;;;;18.85;4.10;;;17.00;77.30;;;;;;5078883;28;20027;-80
2022/05/08 10:55:03;;;;;;;26.63;4.85;;;17.00;77.40;;;;;;5078513;28;20099;-80
2022/05/08 10:57:33;;;;;;;22.75;4.35;;;17.00;77.40;;;;;;5078304;28;20025;-80
2022/05/08 11:00:03;;;;;;;24.92;4.60;;;17.00;77.40;;;;;;5055958;28;20021;-79
2022/05/08 11:02:38;;;;;;;19.15;4.15;;;17.00;77.40;;;;;;5040283;28;20035;-80
2022/05/08 11:05:04;;;;;;;19.35;4.10;;;17.10;77.40;;;;;;5057322;28;20100;-80
2022/05/08 11:07:30;;;;;;;18.77;4.28;;;17.10;77.30;;;;;;5057757;28;20025;-80
2022/05/08 11:09:56;;;;;;;19.20;4.53;;;17.10;77.20;;;;;;5039469;28;20033;-80
2022/05/08 11:12:21;;;;;;;18.90;3.97;;;17.10;77.20;;;;;;5059660;28;20031;-80
2022/05/08 11:14:47;;;;;;;20.05;4.90;;;17.10;77.30;;;;;;5046539;28;20112;-76
2022/05/08 11:17:15;;;;;;;11.38;4.03;;;17.00;77.30;;;;;;5063418;28;20062;-75
2022/05/08 11:19:51;;;;;;;18.90;4.07;;;17.00;77.60;;;;;;5041960;28;20029;-80
2022/05/08 11:22:17;;;;;;;18.45;3.90;;;17.00;77.70;;;;;;5062952;28;20056;-83
2022/05/08 11:24:45;;;;;;;18.23;4.35;;;17.00;77.80;;;;;;5050035;28;20024;-78
2022/05/08 11:27:12;;;;;;;15.60;3.80;;;17.00;77.80;;;;;;5060476;28;20020;-79
2022/05/08 11:29:38;;;;;;;12.80;4.00;;;17.00;77.90;;;;;;5048975;28;20514;-79
2022/05/08 11:38:02;;;;;;;15.55;3.88;;;16.90;78.00;;;;;;5062840;28;20051;-79
2022/05/08 11:40:29;;;;;;;16.70;4.40;;;16.90;78.20;;;;;;5060027;28;20053;-79
2022/05/08 11:42:55;;;;;;;17.25;4.40;;;16.90;78.20;;;;;;5050285;28;20053;-79
2022/05/08 11:45:20;;;;;;;24.80;4.40;;;16.90;78.20;;;;;;5064660;28;20048;-79
2022/05/08 11:47:53;;;;;;;17.38;4.50;;;16.90;78.20;;;;;;5064153;28;20048;-78
2022/05/08 11:50:20;;;;;;;18.05;4.13;;;16.90;78.20;;;;;;5041165;28;20056;-76
2022/05/08 11:52:45;;;;;;;19.98;4.70;;;16.90;78.30;;;;;;5065772;28;20419;-80
2022/05/08 11:55:11;;;;;;;21.15;5.35;;;16.90;78.30;;;;;;5064162;28;20049;-80
2022/05/08 11:57:42;;;;;;;17.23;4.20;;;16.90;78.30;;;;;;5058058;28;20020;-80
2022/05/08 12:00:11;;;;;;;14.20;4.53;;;16.90;78.30;;;;;;5076168;28;20107;-80
2022/05/08 12:02:48;;;;;;;19.98;4.57;;;16.90;78.40;;;;;;5052191;28;20032;-80
2022/05/08 12:05:24;;;;;;;19.27;4.30;;;16.90;78.30;;;;;;5075786;28;20023;-81
2022/05/08 12:07:51;;;;;;;13.35;4.13;;;16.90;78.10;;;;;;5075895;28;20050;-81
2022/05/08 12:10:17;;;;;;;17.77;4.63;;;17.00;78.10;;;;;;5057730;28;20078;-80
2022/05/08 12:12:44;;;;;;;18.13;4.93;;;17.00;77.90;;;;;;5051751;28;20021;-78
2022/05/08 12:15:12;;;;;;;12.75;4.13;;;17.00;77.80;;;;;;5037143;28;20079;-80
2022/05/08 12:17:44;;;;;;;15.70;4.15;;;17.00;77.70;;;;;;5038957;28;20480;-81
2022/05/08 12:20:14;;;;;;;17.77;4.55;;;17.00;77.50;;;;;;5057270;28;20032;-80
2022/05/08 12:22:41;;;;;;;13.57;4.30;;;17.00;77.40;;;;;;5074941;28;20020;-81
2022/05/08 12:25:07;;;;;;;17.98;4.65;;;16.90;77.60;;;;;;5056929;28;20468;-80
2022/05/08 12:27:34;;;;;;;14.68;3.90;;;16.90;77.80;;;;;;5071767;28;20044;-80
2022/05/08 12:30:00;;;;;;;17.63;4.50;;;16.90;78.10;;;;;;5036919;28;20045;-81
2022/05/08 12:32:27;;;;;;;14.70;4.18;;;16.90;78.30;;;;;;5036450;28;20043;-80
2022/05/08 12:34:54;;;;;;;12.93;4.13;;;16.80;78.40;;;;;;5040576;28;20498;-80
2022/05/08 12:37:21;;;;;;;13.65;4.00;;;16.80;78.50;;;;;;5074509;28;20401;-81
2022/05/08 12:39:47;;;;;;;17.73;4.30;;;16.80;78.60;;;;;;5074833;28;20044;-80
2022/05/08 12:42:12;;;;;;;20.38;4.70;;;16.80;78.70;;;;;;5074472;28;20499;-80
2022/05/08 12:44:38;;;;;;;16.08;4.20;;;16.80;78.80;;;;;;5074632;28;20119;-80
2022/05/08 12:47:05;;;;;;;17.00;4.30;;;16.80;78.80;;;;;;5074039;28;20028;-80
2022/05/08 12:49:31;;;;;;;11.90;3.97;;;16.80;78.80;;;;;;5073732;28;20036;-80
2022/05/08 12:51:57;;;;;;;15.52;4.50;;;16.80;78.90;;;;;;5055974;28;20035;-80
2022/05/08 12:54:22;;;;;;;16.50;4.10;;;16.70;79.00;;;;;;5054680;28;20013;-80
2022/05/08 12:56:48;;;;;;;23.52;4.35;;;16.70;79.10;;;;;;5074235;28;20036;-80
2022/05/08 13:01:58;;;;;;;18.73;4.43;;;16.70;79.10;;;;;;5073216;28;20028;-80
2022/05/08 13:04:24;;;;;;;18.13;4.85;;;16.70;78.70;;;;;;5047999;28;20029;-80
2022/05/08 13:06:50;;;;;;;14.90;3.95;;;16.70;78.80;;;;;;5080595;28;20032;-79
2022/05/08 13:09:16;;;;;;;28.45;5.35;;;16.70;78.90;;;;;;5077162;28;20013;-80
2022/05/08 13:11:42;;;;;;;17.92;4.78;;;16.70;78.80;;;;;;5044229;28;20506;-79
2022/05/08 13:14:08;;;;;;;17.55;4.63;;;16.70;78.60;;;;;;5050318;28;20048;-80
2022/05/08 13:16:34;;;;;;;19.17;4.28;;;16.70;78.40;;;;;;5062120;28;20024;-79
2022/05/08 13:19:00;;;;;;;47.58;7.63;;;16.80;78.20;;;;;;5058869;28;20052;-79
2022/05/08 13:21:26;;;;;;;49.40;7.45;;;16.70;77.40;;;;;;5061603;28;20025;-80